createdAt,value
2023-04-02T00:01:03.816Z,95977.28
2023-04-02T00:03:59.892Z,95982.16
2023-04-02T00:06:30.336Z,95980.59
2023-04-02T00:08:59.420Z,95985.81
2023-04-02T00:11:34.387Z,95983.28
2023-04-02T00:14:03.808Z,95984.78
2023-04-02T00:16:31.421Z,95986.44
2023-04-02T00:19:04.305Z,95990.16
2023-04-02T00:21:38.864Z,95992.00
2023-04-02T00:24:20.053Z,96001.91
2023-04-02T00:26:51.175Z,95996.19
2023-04-02T00:29:19.398Z,96003.03
2023-04-02T00:31:51.037Z,96012.72
2023-04-02T00:34:26.047Z,96006.38
2023-04-02T00:36:53.448Z,96003.31
2023-04-02T00:39:25.779Z,96006.19
2023-04-02T00:42:04.647Z,96009.88
2023-04-02T00:44:44.345Z,96004.88
2023-04-02T00:47:33.646Z,96012.09
2023-04-02T00:50:17.621Z,96008.56
2023-04-02T00:52:46.817Z,96013.75
2023-04-02T00:55:27.483Z,96013.25
2023-04-02T00:57:56.010Z,96007.56
2023-04-02T01:00:29.181Z,96002.19
2023-04-02T01:03:18.127Z,96012.09
2023-04-02T01:05:57.656Z,96014.75
2023-04-02T01:09:22.527Z,96019.66
2023-04-02T01:12:27.377Z,96012.44
2023-04-02T01:15:18.669Z,96022.31
2023-04-02T01:18:02.845Z,96027.69
2023-04-02T01:21:06.410Z,96028.72
2023-04-02T01:24:01.607Z,96037.41
2023-04-02T01:26:48.063Z,96032.03
2023-04-02T01:29:39.809Z,96036.56
2023-04-02T01:32:17.367Z,96034.38
2023-04-02T01:34:48.046Z,96035.00
2023-04-02T01:37:44.830Z,96038.72
2023-04-02T01:41:09.616Z,96036.03
2023-04-02T01:43:53.442Z,96039.38
2023-04-02T01:46:32.309Z,96045.41
2023-04-02T01:49:12.751Z,96041.69
2023-04-02T01:51:46.844Z,96042.38
2023-04-02T01:54:17.932Z,96039.69
2023-04-02T01:56:47.295Z,96049.75
2023-04-02T01:59:20.069Z,96044.75
2023-04-02T02:02:04.687Z,96052.31
2023-04-02T02:04:34.513Z,96059.16
2023-04-02T02:07:02.721Z,96054.16
2023-04-02T02:09:34.292Z,96049.16
2023-04-02T02:12:03.795Z,96051.00
2023-04-02T02:14:32.053Z,96052.84
2023-04-02T02:17:02.654Z,96053.88
2023-04-02T02:19:45.757Z,96062.06
2023-04-02T02:22:38.767Z,96064.44
2023-04-02T02:25:19.980Z,96069.13
2023-04-02T02:27:57.022Z,96070.16
2023-04-02T02:30:53.558Z,96072.53
2023-04-02T02:33:36.145Z,96072.53
2023-04-02T02:36:37.546Z,96077.41
2023-04-02T02:39:17.845Z,96073.72
2023-04-02T02:42:04.313Z,96077.41
2023-04-02T02:44:36.339Z,96078.09
2023-04-02T02:47:14.402Z,96072.72
2023-04-02T02:49:46.227Z,96082.25
2023-04-02T02:52:18.264Z,96080.38
2023-04-02T02:55:01.203Z,96076.88
2023-04-02T02:57:48.410Z,96076.03
2023-04-02T03:00:19.837Z,96090.97
2023-04-02T03:02:48.044Z,96084.56
2023-04-02T03:05:23.915Z,96079.41
2023-04-02T03:07:57.115Z,96087.06
2023-04-02T03:10:40.848Z,96089.25
2023-04-02T03:13:47.214Z,96099.16
2023-04-02T03:16:34.532Z,96101.84
2023-04-02T03:19:23.030Z,96102.03
2023-04-02T03:22:05.375Z,96101.19
2023-04-02T03:24:45.638Z,96104.72
2023-04-02T03:27:21.259Z,96110.06
2023-04-02T03:30:07.770Z,96113.91
2023-04-02T03:32:40.733Z,96116.44
2023-04-02T03:35:41.079Z,96121.31
2023-04-02T03:38:19.432Z,96124.81
2023-04-02T03:41:07.618Z,96130.19
2023-04-02T03:43:47.508Z,96130.84
2023-04-02T03:46:26.632Z,96128.00
2023-04-02T03:49:19.610Z,96133.53
2023-04-02T03:52:02.554Z,96133.38
2023-04-02T03:54:29.899Z,96141.72
2023-04-02T03:56:57.466Z,96140.88
2023-04-02T03:59:45.361Z,96143.06
2023-04-02T04:02:34.930Z,96141.22
2023-04-02T04:05:05.886Z,96146.44
2023-04-02T04:07:38.842Z,96147.41
2023-04-02T04:10:08.637Z,96150.59
2023-04-02T04:12:43.932Z,96156.97
2023-04-02T04:15:27.119Z,96154.09
2023-04-02T04:18:29.735Z,96160.66
2023-04-02T04:21:11.896Z,96167.34
2023-04-02T04:23:50.580Z,96159.31
2023-04-02T04:26:34.840Z,96167.50
2023-04-02T04:29:38.016Z,96164.34
2023-04-02T04:32:34.691Z,96171.53
2023-04-02T04:35:31.536Z,96176.25
2023-04-02T04:38:07.607Z,96181.28
2023-04-02T04:40:43.538Z,96177.09
2023-04-02T04:43:19.214Z,96181.63
2023-04-02T04:45:57.576Z,96186.97
2023-04-02T04:48:36.013Z,96188.66
2023-04-02T04:51:09.240Z,96191.16
2023-04-02T04:53:47.398Z,96199.38
2023-04-02T04:56:21.648Z,96203.72
2023-04-02T04:59:03.754Z,96203.72
2023-04-02T05:02:15.170Z,96213.13
2023-04-02T05:04:49.396Z,96215.78
2023-04-02T05:07:31.806Z,96216.16
2023-04-02T05:10:21.865Z,96216.31
2023-04-02T05:12:52.694Z,96219.31
2023-04-02T05:15:32.474Z,96227.72
2023-04-02T05:18:29.858Z,96235.06
2023-04-02T05:21:19.701Z,96231.56
2023-04-02T05:24:13.664Z,96232.25
2023-04-02T05:26:45.851Z,96231.88
2023-04-02T05:29:25.723Z,96239.91
2023-04-02T05:32:22.260Z,96240.09
2023-04-02T05:34:54.856Z,96242.28
2023-04-02T05:37:26.819Z,96247.44
2023-04-02T05:40:14.700Z,96251.00
2023-04-02T05:42:49.476Z,96257.69
2023-04-02T05:45:24.826Z,96248.44
2023-04-02T05:48:00.042Z,96251.63
2023-04-02T05:50:42.955Z,96261.34
2023-04-02T05:53:23.288Z,96259.97
2023-04-02T05:56:01.681Z,96251.59
2023-04-02T05:58:56.232Z,96261.31
2023-04-02T06:01:42.990Z,96264.50
2023-04-02T06:04:30.947Z,96269.84
2023-04-02T06:07:19.824Z,96273.69
2023-04-02T06:10:03.208Z,96280.06
2023-04-02T06:12:54.569Z,96283.44
2023-04-02T06:15:23.733Z,96283.75
2023-04-02T06:18:01.044Z,96293.31
2023-04-02T06:20:28.583Z,96286.91
2023-04-02T06:23:06.545Z,96289.59
2023-04-02T06:25:54.005Z,96294.13
2023-04-02T06:28:48.983Z,96292.94
2023-04-02T06:31:50.633Z,96301.81
2023-04-02T06:34:22.532Z,96311.03
2023-04-02T06:36:59.542Z,96311.88
2023-04-02T06:39:28.263Z,96313.38
2023-04-02T06:42:06.330Z,96320.56
2023-04-02T06:44:55.428Z,96319.22
2023-04-02T06:47:50.594Z,96325.59
2023-04-02T06:50:44.640Z,96332.47
2023-04-02T06:53:47.305Z,96335.84
2023-04-02T06:56:47.003Z,96329.97
2023-04-02T06:59:22.388Z,96337.88
2023-04-02T07:01:57.352Z,96339.38
2023-04-02T07:04:25.500Z,96341.72
2023-04-02T07:06:54.118Z,96352.63
2023-04-02T07:09:24.032Z,96362.53
2023-04-02T07:11:54.588Z,96356.16
2023-04-02T07:14:21.518Z,96372.56
2023-04-02T07:16:48.643Z,96367.72
2023-04-02T07:19:20.338Z,96376.06
2023-04-02T07:21:48.859Z,96376.22
2023-04-02T07:24:16.352Z,96379.94
2023-04-02T07:26:43.269Z,96387.97
2023-04-02T07:29:16.236Z,96383.25
2023-04-02T07:31:43.844Z,96381.38
2023-04-02T07:34:10.811Z,96388.06
2023-04-02T07:36:37.749Z,96393.75
2023-04-02T07:39:05.040Z,96400.44
2023-04-02T07:41:32.015Z,96405.28
2023-04-02T07:43:58.949Z,96399.44
2023-04-02T07:46:26.393Z,96401.59
2023-04-02T07:48:53.289Z,96406.44
2023-04-02T07:51:26.623Z,96410.97
2023-04-02T07:53:55.923Z,96422.03
2023-04-02T07:56:25.090Z,96419.16
2023-04-02T07:58:52.432Z,96428.53
2023-04-02T08:01:26.052Z,96430.88
2023-04-02T08:03:57.717Z,96433.03
2023-04-02T08:06:25.230Z,96440.22
2023-04-02T08:08:52.453Z,96441.38
2023-04-02T08:11:19.741Z,96442.69
2023-04-02T08:13:46.742Z,96447.38
2023-04-02T08:16:13.690Z,96444.31
2023-04-02T08:18:40.527Z,96449.00
2023-04-02T08:21:09.955Z,96454.69
2023-04-02T08:23:38.095Z,96450.63
2023-04-02T08:26:06.476Z,96455.31
2023-04-02T08:28:33.420Z,96456.63
2023-04-02T08:31:00.670Z,96458.81
2023-04-02T08:33:27.635Z,96461.78
2023-04-02T08:35:54.704Z,96467.94
2023-04-02T08:38:22.308Z,96469.06
2023-04-02T08:40:53.111Z,96474.94
2023-04-02T08:43:44.006Z,96478.31
2023-04-02T08:46:33.595Z,96482.66
2023-04-02T08:49:08.831Z,96483.78
2023-04-02T08:51:37.249Z,96487.78
2023-04-02T08:54:17.999Z,96488.47
2023-04-02T08:56:52.471Z,96495.66
2023-04-02T08:59:34.851Z,96494.06
2023-04-02T09:02:22.791Z,96504.97
2023-04-02T09:04:50.091Z,96509.91
2023-04-02T09:07:18.293Z,96505.66
2023-04-02T09:09:49.633Z,96519.91
2023-04-02T09:12:25.503Z,96517.28
2023-04-02T09:15:22.525Z,96516.75
2023-04-02T09:18:01.375Z,96522.03
2023-04-02T09:20:29.278Z,96520.81
2023-04-02T09:22:57.033Z,96532.69
2023-04-02T09:25:31.343Z,96537.94
2023-04-02T09:28:04.774Z,96533.84
2023-04-02T09:30:59.878Z,96538.19
2023-04-02T09:33:54.553Z,96539.72
2023-04-02T09:36:40.360Z,96540.34
2023-04-02T09:39:23.545Z,96553.00
2023-04-02T09:42:02.719Z,96551.41
2023-04-02T09:44:32.595Z,96553.09
2023-04-02T09:47:06.531Z,96560.31
2023-04-02T09:49:39.231Z,96561.34
2023-04-02T09:52:27.732Z,96567.97
2023-04-02T09:55:25.188Z,96565.63
2023-04-02T09:58:16.470Z,96563.28
2023-04-02T10:00:52.421Z,96575.75
2023-04-02T10:03:26.110Z,96577.03
2023-04-02T10:06:12.081Z,96582.34
2023-04-02T10:08:42.494Z,96576.56
2023-04-02T10:11:21.904Z,96585.53
2023-04-02T10:14:01.745Z,96593.59
2023-04-02T10:16:40.659Z,96593.59
2023-04-02T10:19:34.479Z,96599.84
2023-04-02T10:22:07.010Z,96601.97
2023-04-02T10:24:33.883Z,96604.31
2023-04-02T10:27:25.519Z,96605.22
2023-04-02T10:30:27.273Z,96615.53
2023-04-02T10:33:07.679Z,96613.00
2023-04-02T10:35:52.344Z,96615.25
2023-04-02T10:38:42.477Z,96613.75
2023-04-02T10:41:33.399Z,96620.31
2023-04-02T10:44:27.129Z,96627.56
2023-04-02T10:47:19.749Z,96629.91
2023-04-02T10:50:05.748Z,96633.63
2023-04-02T10:52:46.159Z,96640.50
2023-04-02T10:55:26.147Z,96638.00
2023-04-02T10:57:54.077Z,96640.53
2023-04-02T11:00:28.833Z,96644.56
2023-04-02T11:03:07.114Z,96645.59
2023-04-02T11:05:53.784Z,96653.69
2023-04-02T11:08:26.761Z,96652.97
2023-04-02T11:11:03.294Z,96648.41
2023-04-02T11:14:01.022Z,96649.88
2023-04-02T11:16:28.522Z,96650.50
2023-04-02T11:19:16.982Z,96653.00
2023-04-02T11:22:13.726Z,96654.31
2023-04-02T11:24:54.929Z,96655.06
2023-04-02T11:27:30.720Z,96664.13
2023-04-02T11:30:15.853Z,96667.75
2023-04-02T11:32:47.251Z,96668.31
2023-04-02T11:35:32.086Z,96669.63
2023-04-02T11:38:12.218Z,96665.81
2023-04-02T11:40:58.709Z,96675.13
2023-04-02T11:43:35.287Z,96675.88
2023-04-02T11:46:20.360Z,96675.53
2023-04-02T11:48:47.250Z,96684.34
2023-04-02T11:51:23.245Z,96680.16
2023-04-02T11:53:52.877Z,96688.38
2023-04-02T11:56:35.581Z,96689.19
2023-04-02T11:59:17.513Z,96686.78
2023-04-02T12:02:08.563Z,96697.75
2023-04-02T12:04:48.687Z,96695.69
2023-04-02T12:07:51.917Z,96696.53
2023-04-02T12:10:22.871Z,96704.78
2023-04-02T12:12:51.389Z,96706.91
2023-04-02T12:15:45.612Z,96699.19
2023-04-02T12:18:16.615Z,96701.16
2023-04-02T12:20:55.972Z,96700.94
2023-04-02T12:23:36.355Z,96704.69
2023-04-02T12:26:14.296Z,96703.84
2023-04-02T12:28:42.508Z,96711.94
2023-04-02T12:31:09.188Z,96715.28
2023-04-02T12:33:38.787Z,96712.78
2023-04-02T12:36:18.672Z,96717.91
2023-04-02T12:38:55.953Z,96718.06
2023-04-02T12:41:33.265Z,96718.91
2023-04-02T12:44:15.453Z,96724.50
2023-04-02T12:46:43.793Z,96723.47
2023-04-02T12:49:40.338Z,96733.50
2023-04-02T12:52:20.939Z,96729.75
2023-04-02T12:54:52.889Z,96730.78
2023-04-02T12:57:25.716Z,96734.50
2023-04-02T13:00:01.442Z,96731.47
2023-04-02T13:02:32.649Z,96738.06
2023-04-02T13:05:01.703Z,96735.34
2023-04-02T13:07:33.659Z,96735.53
2023-04-02T13:10:04.791Z,96740.13
2023-04-02T13:12:38.660Z,96742.34
2023-04-02T13:15:09.504Z,96739.44
2023-04-02T13:17:44.517Z,96740.94
2023-04-02T13:20:37.515Z,96741.88
2023-04-02T13:23:29.256Z,96743.88
2023-04-02T13:26:17.065Z,96747.25
2023-04-02T13:28:56.905Z,96748.81
2023-04-02T13:31:23.805Z,96744.91
2023-04-02T13:33:50.960Z,96753.00
2023-04-02T13:36:17.877Z,96754.03
2023-04-02T13:38:44.676Z,96751.34
2023-04-02T13:41:24.893Z,96750.19
2023-04-02T13:43:53.429Z,96751.06
2023-04-02T13:46:24.887Z,96762.22
2023-04-02T13:48:53.702Z,96765.47
2023-04-02T13:51:34.872Z,96771.09
2023-04-02T13:54:02.077Z,96777.72
2023-04-02T13:56:28.897Z,96772.88
2023-04-02T13:58:55.851Z,96777.78
2023-04-02T14:01:24.454Z,96782.22
2023-04-02T14:03:53.486Z,96791.88
2023-04-02T14:07:06.725Z,96796.34
2023-04-02T14:09:53.694Z,96794.72
2023-04-02T14:12:41.445Z,96804.53
2023-04-02T14:15:30.350Z,96807.47
2023-04-02T14:18:40.763Z,96806.63
2023-04-02T14:21:31.103Z,96818.63
2023-04-02T14:24:31.933Z,96826.94
2023-04-02T14:27:29.620Z,96824.94
2023-04-02T14:30:07.058Z,96842.84
2023-04-02T14:33:08.496Z,96838.97
2023-04-02T14:35:44.071Z,96835.97
2023-04-02T14:38:35.219Z,96836.81
2023-04-02T14:41:11.470Z,96845.09
2023-04-02T14:43:46.421Z,96843.06
2023-04-02T14:46:18.077Z,96845.63
2023-04-02T14:49:04.504Z,96854.03
2023-04-02T14:51:45.753Z,96851.00
2023-04-02T14:54:43.274Z,96857.00
2023-04-02T14:57:30.845Z,96847.94
2023-04-02T15:00:22.618Z,96855.66
2023-04-02T15:03:13.122Z,96865.06
2023-04-02T15:05:46.239Z,96863.38
2023-04-02T15:08:37.278Z,96866.41
2023-04-02T15:11:19.011Z,96868.59
2023-04-02T15:14:13.885Z,96869.06
2023-04-02T15:16:40.931Z,96877.50
2023-04-02T15:19:17.707Z,96878.47
2023-04-02T15:22:12.989Z,96881.81
2023-04-02T15:25:08.851Z,96878.78
2023-04-02T15:28:02.492Z,96877.56
2023-04-02T15:30:39.628Z,96887.66
2023-04-02T15:33:41.904Z,96889.78
2023-04-02T15:36:37.296Z,96893.13
2023-04-02T15:39:07.200Z,96899.16
2023-04-02T15:41:41.387Z,96906.34
2023-04-02T15:44:16.676Z,96918.47
2023-04-02T15:47:10.410Z,96913.41
2023-04-02T15:50:01.325Z,96912.56
2023-04-02T15:52:53.403Z,96914.72
2023-04-02T15:55:39.905Z,96928.31
2023-04-02T15:58:55.400Z,96924.44
2023-04-02T16:01:54.057Z,96925.91
2023-04-02T16:04:46.256Z,96935.28
2023-04-02T16:07:58.091Z,96932.06
2023-04-02T16:10:41.868Z,96943.81
2023-04-02T16:13:36.871Z,96945.09
2023-04-02T16:16:17.375Z,96953.31
2023-04-02T16:19:02.330Z,96948.44
2023-04-02T16:21:34.804Z,96951.13
2023-04-02T16:24:01.769Z,96958.16
2023-04-02T16:26:54.392Z,96959.66
2023-04-02T16:29:38.009Z,96964.31
2023-04-02T16:32:37.589Z,96974.22
2023-04-02T16:35:42.623Z,96973.69
2023-04-02T16:38:28.997Z,96982.56
2023-04-02T16:41:29.522Z,96990.94
2023-04-02T16:44:51.842Z,96990.72
2023-04-02T16:47:36.217Z,96998.06
2023-04-02T16:50:35.258Z,97002.75
2023-04-02T16:53:23.147Z,97007.75
2023-04-02T16:56:35.472Z,97005.66
2023-04-02T16:59:18.630Z,97019.38
2023-04-02T17:02:31.427Z,97024.38
2023-04-02T17:05:16.140Z,97022.84
2023-04-02T17:08:05.763Z,97038.41
2023-04-02T17:10:45.849Z,97034.72
2023-04-02T17:13:29.615Z,97043.78
2023-04-02T17:16:27.230Z,97048.44
2023-04-02T17:18:59.617Z,97049.44
2023-04-02T17:21:29.264Z,97052.28
2023-04-02T17:24:18.376Z,97063.75
2023-04-02T17:26:54.248Z,97066.56
2023-04-02T17:29:29.929Z,97077.63
2023-04-02T17:32:01.724Z,97071.56
2023-04-02T17:34:29.207Z,97072.56
2023-04-02T17:37:06.965Z,97085.41
2023-04-02T17:39:42.493Z,97088.25
2023-04-02T17:42:30.190Z,97092.91
2023-04-02T17:45:04.881Z,97093.63
2023-04-02T17:47:46.360Z,97093.63
2023-04-02T17:50:38.719Z,97110.16
2023-04-02T17:53:31.014Z,97111.28
2023-04-02T17:56:27.154Z,97122.28
2023-04-02T17:59:08.819Z,97126.13
2023-04-02T18:01:54.682Z,97137.44
2023-04-02T18:04:42.143Z,97137.03
2023-04-02T18:07:43.233Z,97149.03
2023-04-02T18:10:45.261Z,97142.28
2023-04-02T18:13:43.087Z,97158.63
2023-04-02T18:16:30.943Z,97168.81
2023-04-02T18:19:17.055Z,97164.31
2023-04-02T18:22:17.989Z,97167.03
2023-04-02T18:25:15.367Z,97178.44
2023-04-02T18:28:08.424Z,97180.69
2023-04-02T18:30:54.846Z,97182.25
2023-04-02T18:33:48.639Z,97186.63
2023-04-02T18:36:32.761Z,97204.81
2023-04-02T18:39:11.736Z,97208.75
2023-04-02T18:42:23.647Z,97196.78
2023-04-02T18:45:17.157Z,97213.53
2023-04-02T18:48:08.594Z,97218.31
2023-04-02T18:50:39.256Z,97230.72
2023-04-02T18:53:20.518Z,97233.13
2023-04-02T18:56:06.623Z,97241.25
2023-04-02T18:58:56.743Z,97250.38
2023-04-02T19:01:32.055Z,97248.13
2023-04-02T19:04:06.348Z,97266.41
2023-04-02T19:06:47.994Z,97278.63
2023-04-02T19:09:37.269Z,97279.16
2023-04-02T19:12:21.972Z,97284.22
2023-04-02T19:14:51.048Z,97290.56
2023-04-02T19:17:39.623Z,97300.47
2023-04-02T19:20:47.107Z,97309.16
2023-04-02T19:23:56.051Z,97320.50
2023-04-02T19:26:36.465Z,97311.91
2023-04-02T19:29:29.110Z,97328.47
2023-04-02T19:32:11.006Z,97330.56
2023-04-02T19:34:44.507Z,97342.63
2023-04-02T19:37:38.522Z,97340.44
2023-04-02T19:40:20.310Z,97347.47
2023-04-02T19:42:50.207Z,97354.63
2023-04-02T19:45:26.379Z,97360.59
2023-04-02T19:47:53.787Z,97361.09
2023-04-02T19:50:21.002Z,97364.03
2023-04-02T19:52:47.868Z,97370.44
2023-04-02T19:55:14.768Z,97374.09
2023-04-02T19:57:41.620Z,97374.09
2023-04-02T20:00:12.404Z,97375.34
2023-04-02T20:02:39.397Z,97381.53
2023-04-02T20:05:07.230Z,97379.84
2023-04-02T20:07:34.070Z,97393.19
2023-04-02T20:10:01.004Z,97393.34
2023-04-02T20:12:27.820Z,97397.22
2023-04-02T20:14:54.684Z,97406.47
2023-04-02T20:17:21.473Z,97406.72
2023-04-02T20:19:48.323Z,97401.63
2023-04-02T20:22:15.413Z,97406.50
2023-04-02T20:24:42.623Z,97402.75
2023-04-02T20:27:09.486Z,97407.88
2023-04-02T20:29:36.413Z,97406.81
2023-04-02T20:32:03.984Z,97409.50
2023-04-02T20:34:31.060Z,97410.94
2023-04-02T20:36:57.986Z,97411.31
2023-04-02T20:39:24.964Z,97421.28
2023-04-02T20:41:51.759Z,97425.16
2023-04-02T20:44:18.612Z,97433.41
2023-04-02T20:46:46.154Z,97435.31
2023-04-02T20:49:12.933Z,97435.69
2023-04-02T20:51:39.781Z,97443.09
2023-04-02T20:54:06.714Z,97445.03
2023-04-02T20:56:33.903Z,97447.72
2023-04-02T20:59:00.908Z,97454.03
2023-04-02T21:01:30.302Z,97450.75
2023-04-02T21:04:00.567Z,97454.75
2023-04-02T21:06:31.476Z,97450.34
2023-04-02T21:08:58.565Z,97449.50
2023-04-02T21:11:26.126Z,97461.38
2023-04-02T21:13:52.980Z,97456.28
2023-04-02T21:16:22.360Z,97462.59
2023-04-02T21:18:52.671Z,97468.91
2023-04-02T21:21:20.928Z,97466.00
2023-04-02T21:23:48.877Z,97471.34
2023-04-02T21:26:17.556Z,97471.44
2023-04-02T21:28:45.511Z,97476.53
2023-04-02T21:31:15.771Z,97473.75
2023-04-02T21:33:46.956Z,97486.84
2023-04-02T21:36:20.170Z,97482.25
2023-04-02T21:38:56.612Z,97487.59
2023-04-02T21:41:26.437Z,97487.47
2023-04-02T21:43:55.056Z,97483.34
2023-04-02T21:46:25.707Z,97482.72
2023-04-02T21:48:54.718Z,97484.78
2023-04-02T21:51:27.186Z,97486.09
2023-04-02T21:53:54.447Z,97485.63
2023-04-02T21:56:30.865Z,97490.78
2023-04-02T21:58:59.003Z,97498.78
2023-04-02T22:01:29.088Z,97496.13
2023-04-02T22:04:02.015Z,97499.66
2023-04-02T22:06:32.352Z,97497.84
2023-04-02T22:09:03.772Z,97503.03
2023-04-02T22:11:35.703Z,97504.72
2023-04-02T22:14:03.668Z,97502.69
2023-04-02T22:16:33.397Z,97503.53
2023-04-02T22:19:03.380Z,97500.63
2023-04-02T22:21:32.216Z,97496.91
2023-04-02T22:24:09.107Z,97507.56
2023-04-02T22:26:36.460Z,97495.78
2023-04-02T22:29:04.952Z,97499.44
2023-04-02T22:31:34.849Z,97501.47
2023-04-02T22:34:03.722Z,97504.50
2023-04-02T22:36:34.058Z,97503.78
2023-04-02T22:39:01.694Z,97507.66
2023-04-02T22:41:29.672Z,97504.13
2023-04-02T22:43:58.109Z,97502.19
2023-04-02T22:46:26.534Z,97504.88
2023-04-02T22:48:54.388Z,97494.19
2023-04-02T22:51:22.860Z,97494.31
2023-04-02T22:53:50.687Z,97495.28
2023-04-02T22:56:24.858Z,97490.28
2023-04-02T22:58:51.710Z,97485.94
2023-04-02T23:01:35.428Z,97494.28
2023-04-02T23:04:02.317Z,97491.72
2023-04-02T23:06:29.384Z,97486.50
2023-04-02T23:08:56.428Z,97484.81
2023-04-02T23:11:26.349Z,97497.31
2023-04-02T23:13:54.857Z,97496.06
2023-04-02T23:16:23.017Z,97501.78
2023-04-02T23:18:50.432Z,97506.00
2023-04-02T23:21:20.049Z,97500.59
2023-04-02T23:23:48.121Z,97503.75
2023-04-02T23:26:31.689Z,97505.44
2023-04-02T23:28:59.772Z,97504.13
2023-04-02T23:31:26.829Z,97500.16
2023-04-02T23:33:53.786Z,97513.13
2023-04-02T23:36:31.872Z,97504.38
2023-04-02T23:39:09.159Z,97503.19
2023-04-02T23:41:37.781Z,97501.88
2023-04-02T23:44:05.658Z,97499.94
2023-04-02T23:46:33.384Z,97499.94
2023-04-02T23:49:01.196Z,97497.03
2023-04-02T23:51:29.628Z,97504.81
2023-04-02T23:53:56.653Z,97502.84
2023-04-02T23:56:24.210Z,97503.69
2023-04-02T23:58:51.408Z,97498.25
